createdAt,value
2019-05-20T00:00:09.182Z,93859.45
2019-05-20T00:02:41.672Z,93865.28
2019-05-20T00:05:14.490Z,93867.61
2019-05-20T00:07:46.944Z,93869.60
2019-05-20T00:10:19.790Z,93865.09
2019-05-20T00:12:52.078Z,93866.28
2019-05-20T00:15:24.650Z,93871.11
2019-05-20T00:17:56.984Z,93868.13
2019-05-20T00:20:29.524Z,93868.77
2019-05-20T00:23:01.853Z,93873.17
2019-05-20T00:25:34.210Z,93877.81
2019-05-20T00:28:06.813Z,93888.78
2019-05-20T00:30:39.190Z,93880.04
2019-05-20T00:33:11.596Z,93875.66
2019-05-20T00:35:44.155Z,93885.09
2019-05-20T00:38:16.799Z,93881.78
2019-05-20T00:40:49.282Z,93883.46
2019-05-20T00:43:22.028Z,93882.48
2019-05-20T00:45:54.518Z,93886.39
2019-05-20T00:48:26.802Z,93881.05
2019-05-20T00:50:59.180Z,93887.53
2019-05-20T00:53:31.397Z,93893.80
2019-05-20T00:56:03.989Z,93885.84
2019-05-20T00:58:36.289Z,93886.30
2019-05-20T01:01:08.646Z,93884.82
2019-05-20T01:03:40.763Z,93890.20
2019-05-20T01:06:12.893Z,93895.00
2019-05-20T01:08:44.943Z,93895.04
2019-05-20T01:11:17.011Z,93898.42
2019-05-20T01:13:49.082Z,93898.94
2019-05-20T01:16:21.166Z,93902.23
2019-05-20T01:18:53.450Z,93909.27
2019-05-20T01:21:25.591Z,93915.47
2019-05-20T01:23:57.791Z,93914.75
2019-05-20T01:26:29.936Z,93923.79
2019-05-20T01:29:02.711Z,93919.48
2019-05-20T01:31:34.851Z,93925.73
2019-05-20T01:34:07.222Z,93924.31
2019-05-20T01:36:39.213Z,93924.54
2019-05-20T01:39:11.652Z,93927.64
2019-05-20T01:41:43.951Z,93924.61
2019-05-20T01:44:16.233Z,93928.69
2019-05-20T01:46:48.526Z,93933.87
2019-05-20T01:49:20.737Z,93935.80
2019-05-20T01:51:52.835Z,93936.16
2019-05-20T01:54:24.905Z,93937.82
2019-05-20T01:56:57.001Z,93938.89
2019-05-20T01:59:29.168Z,93939.02
2019-05-20T02:02:01.280Z,93934.45
2019-05-20T02:04:33.624Z,93934.36
2019-05-20T02:07:05.604Z,93925.77
2019-05-20T02:09:37.668Z,93921.84
2019-05-20T02:12:09.938Z,93921.74
2019-05-20T02:14:48.141Z,93918.38
2019-05-20T02:17:20.225Z,93920.70
2019-05-20T02:19:52.510Z,93926.06
2019-05-20T02:22:24.598Z,93936.00
2019-05-20T02:24:56.881Z,93938.58
2019-05-20T02:27:29.166Z,93938.91
2019-05-20T02:30:01.283Z,93936.42
2019-05-20T02:32:33.596Z,93942.11
2019-05-20T02:35:05.616Z,93934.13
2019-05-20T02:37:37.655Z,93931.73
2019-05-20T02:40:10.283Z,93935.97
2019-05-20T02:42:42.400Z,93930.17
2019-05-20T02:45:14.485Z,93929.10
2019-05-20T02:47:46.571Z,93927.77
2019-05-20T02:50:18.891Z,93938.33
2019-05-20T02:52:50.996Z,93924.52
2019-05-20T02:55:23.123Z,93925.95
2019-05-20T02:57:55.293Z,93933.62
2019-05-20T03:00:27.537Z,93936.42
2019-05-20T03:02:59.710Z,93931.63
2019-05-20T03:05:32.250Z,93935.52
2019-05-20T03:08:04.624Z,93935.03
2019-05-20T03:10:36.856Z,93932.06
2019-05-20T03:13:09.110Z,93932.08
2019-05-20T03:15:41.684Z,93929.50
2019-05-20T03:18:13.777Z,93926.58
2019-05-20T03:20:46.178Z,93923.55
2019-05-20T03:23:18.275Z,93927.39
2019-05-20T03:25:50.525Z,93929.90
2019-05-20T03:28:22.586Z,93924.74
2019-05-20T03:30:54.915Z,93928.20
2019-05-20T03:33:27.025Z,93934.71
2019-05-20T03:35:59.739Z,93937.09
2019-05-20T03:38:32.093Z,93944.29
2019-05-20T03:41:04.424Z,93952.34
2019-05-20T03:43:36.674Z,93962.35
2019-05-20T03:46:09.002Z,93963.47
2019-05-20T03:48:41.167Z,93968.00
2019-05-20T03:51:13.754Z,93972.95
2019-05-20T03:53:45.799Z,93976.13
2019-05-20T03:56:18.391Z,93977.97
2019-05-20T03:58:50.916Z,93985.19
2019-05-20T04:01:23.175Z,93986.36
2019-05-20T04:03:55.440Z,93984.38
2019-05-20T04:06:27.705Z,93990.83
2019-05-20T04:08:59.968Z,93984.97
2019-05-20T04:11:32.580Z,93986.21
2019-05-20T04:14:05.020Z,93989.48
2019-05-20T04:16:37.363Z,93989.42
2019-05-20T04:19:09.854Z,93988.40
2019-05-20T04:21:42.059Z,93991.84
2019-05-20T04:24:14.642Z,93987.35
2019-05-20T04:26:47.486Z,93988.30
2019-05-20T04:29:19.624Z,93991.59
2019-05-20T04:31:52.022Z,93990.70
2019-05-20T04:34:24.152Z,93986.58
2019-05-20T04:36:56.333Z,93981.92
2019-05-20T04:39:28.553Z,93988.95
2019-05-20T04:42:00.817Z,93989.91
2019-05-20T04:44:33.566Z,93989.59
2019-05-20T04:47:05.647Z,93987.87
2019-05-20T04:49:37.916Z,93986.36
2019-05-20T04:52:10.254Z,93991.31
2019-05-20T04:54:42.566Z,93979.05
2019-05-20T04:57:15.034Z,93977.89
2019-05-20T04:59:47.425Z,93974.84
2019-05-20T05:02:19.797Z,93974.16
2019-05-20T05:04:52.264Z,93971.48
2019-05-20T05:07:24.668Z,93978.58
2019-05-20T05:09:57.276Z,93982.25
2019-05-20T05:12:29.775Z,93982.66
2019-05-20T05:15:02.102Z,93991.30
2019-05-20T05:17:35.370Z,93989.46
2019-05-20T05:20:16.802Z,93991.98
2019-05-20T05:22:42.015Z,93992.21
2019-05-20T05:25:14.562Z,93992.76
2019-05-20T05:27:46.915Z,93996.28
2019-05-20T05:30:19.536Z,93987.28
2019-05-20T05:32:51.949Z,93989.84
2019-05-20T05:35:24.567Z,93988.94
2019-05-20T05:37:56.996Z,93990.70
2019-05-20T05:40:33.088Z,93987.77
2019-05-20T05:43:05.341Z,93996.01
2019-05-20T05:45:37.706Z,93989.50
2019-05-20T05:48:09.967Z,93982.16
2019-05-20T05:50:42.146Z,93979.37
2019-05-20T05:53:14.180Z,93984.52
2019-05-20T05:55:46.408Z,93985.38
2019-05-20T05:58:18.688Z,93981.66
2019-05-20T06:00:51.048Z,93987.09
2019-05-20T06:03:23.329Z,93989.25
2019-05-20T06:06:10.705Z,93986.15
2019-05-20T06:08:29.394Z,93988.77
2019-05-20T06:11:01.581Z,93988.44
2019-05-20T06:13:33.943Z,93992.91
2019-05-20T06:16:06.448Z,93995.30
2019-05-20T06:18:40.033Z,93998.86
2019-05-20T06:21:12.360Z,93999.27
2019-05-20T06:23:44.620Z,93996.09
2019-05-20T06:26:16.853Z,93998.53
2019-05-20T06:28:49.227Z,93997.53
2019-05-20T06:31:23.657Z,93998.53
2019-05-20T06:33:56.212Z,93997.76
2019-05-20T06:36:28.727Z,93997.75
2019-05-20T06:39:13.837Z,93994.16
2019-05-20T06:41:46.243Z,93991.55
2019-05-20T06:44:18.655Z,93984.17
2019-05-20T06:46:51.038Z,93980.94
2019-05-20T06:49:23.270Z,93990.33
2019-05-20T06:51:55.997Z,93999.70
2019-05-20T06:54:28.192Z,93998.56
2019-05-20T06:57:00.469Z,94006.48
2019-05-20T06:59:32.694Z,93994.80
2019-05-20T07:02:06.124Z,93999.43
2019-05-20T07:04:38.517Z,94005.73
2019-05-20T07:07:20.537Z,94002.59
2019-05-20T07:09:45.326Z,93998.84
2019-05-20T07:12:17.685Z,93994.95
2019-05-20T07:14:50.142Z,93993.66
2019-05-20T07:17:22.505Z,93986.03
2019-05-20T07:19:54.797Z,93990.83
2019-05-20T07:22:26.928Z,93991.98
2019-05-20T07:24:59.155Z,93987.95
2019-05-20T07:27:31.471Z,93985.31
2019-05-20T07:30:03.817Z,93984.18
2019-05-20T07:32:36.062Z,93993.09
2019-05-20T07:35:08.902Z,93987.36
2019-05-20T07:37:41.118Z,93998.04
2019-05-20T07:40:14.279Z,93998.42
2019-05-20T07:42:46.472Z,93998.86
2019-05-20T07:45:18.712Z,93998.32
2019-05-20T07:47:51.061Z,94002.73
2019-05-20T07:50:23.594Z,94002.70
2019-05-20T07:52:56.305Z,94004.89
2019-05-20T07:55:32.565Z,94002.00
2019-05-20T07:58:09.209Z,94003.45
2019-05-20T08:00:41.643Z,94003.53
2019-05-20T08:03:13.964Z,94000.75
2019-05-20T08:05:46.159Z,93996.33
2019-05-20T08:08:18.592Z,94002.91
2019-05-20T08:10:51.094Z,94005.87
2019-05-20T08:13:23.425Z,93998.45
2019-05-20T08:15:55.721Z,93989.18
2019-05-20T08:18:28.293Z,93988.77
2019-05-20T08:21:00.575Z,93980.77
2019-05-20T08:23:32.832Z,93980.84
2019-05-20T08:26:05.265Z,93989.91
2019-05-20T08:28:37.801Z,93996.56
2019-05-20T08:31:10.143Z,93992.84
2019-05-20T08:33:42.207Z,93998.45
2019-05-20T08:36:14.531Z,93998.44
2019-05-20T08:38:46.706Z,94000.95
2019-05-20T08:41:18.900Z,93987.19
2019-05-20T08:43:51.076Z,93983.31
2019-05-20T08:46:23.588Z,93989.53
2019-05-20T08:48:56.015Z,93984.38
2019-05-20T08:51:28.418Z,93983.96
2019-05-20T08:54:00.573Z,93982.36
2019-05-20T08:56:33.009Z,93985.05
2019-05-20T08:59:05.063Z,93987.30
2019-05-20T09:01:37.248Z,93982.66
2019-05-20T09:04:09.498Z,93985.08
2019-05-20T09:06:41.595Z,93993.78
2019-05-20T09:09:13.802Z,93988.80
2019-05-20T09:11:47.775Z,93982.61
2019-05-20T09:14:19.695Z,93988.94
2019-05-20T09:16:51.885Z,93987.39
2019-05-20T09:19:24.138Z,93989.65
2019-05-20T09:21:56.163Z,93986.63
2019-05-20T09:24:28.443Z,93988.21
2019-05-20T09:27:00.685Z,93984.17
2019-05-20T09:29:33.205Z,93984.22
2019-05-20T09:32:06.008Z,93989.82
2019-05-20T09:34:38.690Z,93980.13
2019-05-20T09:37:11.028Z,93979.50
2019-05-20T09:39:43.087Z,93975.66
2019-05-20T09:42:15.131Z,93977.30
2019-05-20T09:44:47.197Z,93980.64
2019-05-20T09:47:19.590Z,93982.55
2019-05-20T09:49:51.734Z,93979.44
2019-05-20T09:52:23.991Z,93982.33
2019-05-20T09:54:56.020Z,93974.38
2019-05-20T09:57:30.234Z,93975.73
2019-05-20T10:00:02.556Z,93977.52
2019-05-20T10:02:38.264Z,93976.29
2019-05-20T10:05:09.119Z,93981.91
2019-05-20T10:07:41.438Z,93976.92
2019-05-20T10:10:14.024Z,93973.50
2019-05-20T10:12:47.206Z,93978.66
2019-05-20T10:15:19.907Z,93980.31
2019-05-20T10:17:52.387Z,93976.11
2019-05-20T10:20:24.665Z,93977.51
2019-05-20T10:22:57.154Z,93988.08
2019-05-20T10:25:29.762Z,93979.17
2019-05-20T10:28:01.975Z,93978.34
2019-05-20T10:30:34.560Z,93986.80
2019-05-20T10:33:09.105Z,93983.05
2019-05-20T10:35:40.788Z,93995.34
2019-05-20T10:38:13.261Z,93998.54
2019-05-20T10:40:45.940Z,94000.27
2019-05-20T10:43:18.348Z,94015.53
2019-05-20T10:45:50.710Z,94021.70
2019-05-20T10:48:23.013Z,94038.53
2019-05-20T10:50:55.241Z,94045.59
2019-05-20T10:53:28.542Z,94060.98
2019-05-20T10:56:01.687Z,94041.25
2019-05-20T10:58:34.437Z,94042.20
2019-05-20T11:01:07.110Z,94045.56
2019-05-20T11:03:39.555Z,94038.22
2019-05-20T11:06:12.259Z,94044.93
2019-05-20T11:08:44.961Z,94043.66
2019-05-20T11:11:17.269Z,94051.80
2019-05-20T11:13:49.831Z,94053.79
2019-05-20T11:16:22.314Z,94051.34
2019-05-20T11:18:54.834Z,94048.03
2019-05-20T11:21:27.370Z,94064.84
2019-05-20T11:23:59.792Z,94060.92
2019-05-20T11:26:32.004Z,94058.92
2019-05-20T11:29:04.667Z,94052.34
2019-05-20T11:31:36.865Z,94044.77
2019-05-20T11:34:09.341Z,94043.60
2019-05-20T11:36:44.138Z,94038.69
2019-05-20T11:39:31.234Z,94033.13
2019-05-20T11:41:54.579Z,94038.59
2019-05-20T11:44:24.495Z,94036.01
2019-05-20T11:46:56.926Z,94037.12
2019-05-20T11:49:29.553Z,94032.00
2019-05-20T11:52:02.229Z,94028.16
2019-05-20T11:54:34.808Z,94028.88
2019-05-20T11:57:07.447Z,94021.99
2019-05-20T11:59:40.207Z,94022.16
2019-05-20T12:02:13.036Z,94022.14
2019-05-20T12:04:45.253Z,94014.73
2019-05-20T12:07:17.814Z,94025.03
2019-05-20T12:09:50.524Z,94033.09
2019-05-20T12:12:23.081Z,94031.69
2019-05-20T12:14:55.484Z,94040.77
2019-05-20T12:17:27.900Z,94043.14
2019-05-20T12:20:00.232Z,94050.56
2019-05-20T12:22:32.386Z,94043.38
2019-05-20T12:25:04.921Z,94054.65
2019-05-20T12:27:37.281Z,94071.82
2019-05-20T12:30:10.277Z,94089.79
2019-05-20T12:32:42.667Z,94103.10
2019-05-20T12:35:15.268Z,94126.95
2019-05-20T12:37:47.410Z,94136.30
2019-05-20T12:40:20.107Z,94139.36
2019-05-20T12:42:52.614Z,94135.06
2019-05-20T12:45:25.075Z,94133.39
2019-05-20T12:47:57.463Z,94145.70
2019-05-20T12:50:30.196Z,94149.17
2019-05-20T12:53:02.601Z,94158.83
2019-05-20T12:55:35.190Z,94154.36
2019-05-20T12:58:07.919Z,94148.33
2019-05-20T13:00:40.291Z,94154.81
2019-05-20T13:03:13.058Z,94152.72
2019-05-20T13:05:45.448Z,94152.45
2019-05-20T13:08:17.537Z,94153.05
2019-05-20T13:10:49.776Z,94139.88
2019-05-20T13:13:21.907Z,94143.46
2019-05-20T13:15:54.136Z,94131.78
2019-05-20T13:18:26.351Z,94127.94
2019-05-20T13:20:58.677Z,94133.94
2019-05-20T13:23:31.665Z,94134.91
2019-05-20T13:26:05.818Z,94128.58
2019-05-20T13:28:38.187Z,94126.78
2019-05-20T13:31:10.591Z,94123.04
2019-05-20T13:33:42.913Z,94118.34
2019-05-20T13:36:15.486Z,94124.24
2019-05-20T13:38:47.745Z,94116.77
2019-05-20T13:41:20.111Z,94113.09
2019-05-20T13:43:52.503Z,94118.41
2019-05-20T13:46:24.752Z,94118.70
2019-05-20T13:48:57.139Z,94120.31
2019-05-20T13:51:29.394Z,94124.56
2019-05-20T13:54:01.973Z,94120.48
2019-05-20T13:56:34.376Z,94121.12
2019-05-20T13:59:06.631Z,94130.30
2019-05-20T14:01:39.162Z,94124.27
2019-05-20T14:04:11.281Z,94126.27
2019-05-20T14:06:43.552Z,94129.34
2019-05-20T14:09:15.895Z,94129.11
2019-05-20T14:11:48.304Z,94133.13
2019-05-20T14:14:20.623Z,94138.34
2019-05-20T14:16:53.160Z,94144.40
2019-05-20T14:19:25.511Z,94149.19
2019-05-20T14:21:57.818Z,94150.98
2019-05-20T14:24:29.897Z,94164.90
2019-05-20T14:27:02.614Z,94172.33
2019-05-20T14:29:45.466Z,94169.41
2019-05-20T14:32:19.585Z,94178.39
2019-05-20T14:34:51.787Z,94177.95
2019-05-20T14:37:24.165Z,94182.32
2019-05-20T14:39:58.612Z,94191.08
2019-05-20T14:42:31.018Z,94193.19
2019-05-20T14:45:03.201Z,94202.23
2019-05-20T14:47:35.756Z,94194.40
2019-05-20T14:50:08.939Z,94184.28
2019-05-20T14:52:41.467Z,94182.75
2019-05-20T14:55:15.628Z,94198.58
2019-05-20T14:57:48.070Z,94205.22
2019-05-20T15:00:20.953Z,94199.95
2019-05-20T15:02:53.595Z,94200.09
2019-05-20T15:05:26.227Z,94197.33
2019-05-20T15:07:58.510Z,94197.81
2019-05-20T15:10:33.997Z,94194.91
2019-05-20T15:13:06.829Z,94197.72
2019-05-20T15:15:39.511Z,94192.16
2019-05-20T15:18:12.129Z,94193.23
2019-05-20T15:20:44.385Z,94192.84
2019-05-20T15:23:17.971Z,94181.41
2019-05-20T15:25:50.216Z,94180.58
2019-05-20T15:28:22.729Z,94172.22
2019-05-20T15:30:55.378Z,94175.71
2019-05-20T15:33:27.956Z,94178.83
2019-05-20T15:36:00.170Z,94181.53
2019-05-20T15:38:32.399Z,94176.05
2019-05-20T15:41:04.799Z,94169.05
2019-05-20T15:43:38.971Z,94169.23
2019-05-20T15:46:11.282Z,94171.61
2019-05-20T15:48:43.959Z,94172.29
2019-05-20T15:51:16.455Z,94177.30
2019-05-20T15:53:49.010Z,94177.95
2019-05-20T15:56:24.456Z,94182.75
2019-05-20T15:58:57.163Z,94183.08
2019-05-20T16:01:30.109Z,94178.06
2019-05-20T16:04:02.479Z,94177.67
2019-05-20T16:06:35.185Z,94173.59
2019-05-20T16:09:08.508Z,94173.05
2019-05-20T16:11:41.260Z,94181.70
2019-05-20T16:14:14.028Z,94172.03
2019-05-20T16:16:46.398Z,94174.35
2019-05-20T16:19:18.983Z,94165.67
2019-05-20T16:21:51.318Z,94167.94
2019-05-20T16:24:23.708Z,94162.30
2019-05-20T16:26:56.188Z,94164.63
2019-05-20T16:29:28.753Z,94172.06
2019-05-20T16:32:05.580Z,94169.17
2019-05-20T16:34:38.099Z,94173.38
2019-05-20T16:37:13.733Z,94174.27
2019-05-20T16:39:46.286Z,94174.17
2019-05-20T16:42:19.027Z,94173.66
2019-05-20T16:44:51.764Z,94166.97
2019-05-20T16:47:24.210Z,94168.78
2019-05-20T16:49:57.200Z,94177.20
2019-05-20T16:52:30.282Z,94172.72
2019-05-20T16:55:02.788Z,94177.54
2019-05-20T16:57:35.680Z,94171.50
2019-05-20T17:00:29.001Z,94172.72
2019-05-20T17:02:43.307Z,94171.77
2019-05-20T17:05:16.037Z,94170.11
2019-05-20T17:07:48.645Z,94162.17
2019-05-20T17:10:21.195Z,94160.20
2019-05-20T17:12:53.970Z,94164.17
2019-05-20T17:15:26.751Z,94168.39
2019-05-20T17:17:59.606Z,94176.47
2019-05-20T17:20:32.278Z,94187.77
2019-05-20T17:23:04.736Z,94187.32
2019-05-20T17:25:37.569Z,94190.75
2019-05-20T17:28:10.315Z,94186.63
2019-05-20T17:30:45.713Z,94186.00
2019-05-20T17:33:17.783Z,94186.25
2019-05-20T17:35:50.675Z,94188.84
2019-05-20T17:38:23.346Z,94188.23
2019-05-20T17:40:56.112Z,94185.95
2019-05-20T17:43:28.600Z,94189.70
2019-05-20T17:46:01.436Z,94188.86
2019-05-20T17:48:34.421Z,94196.44
2019-05-20T17:51:08.924Z,94196.85
2019-05-20T17:53:42.017Z,94203.73
2019-05-20T17:56:16.612Z,94201.80
2019-05-20T17:58:49.334Z,94203.74
2019-05-20T18:01:24.532Z,94208.78
2019-05-20T18:03:57.301Z,94206.39
2019-05-20T18:06:30.342Z,94210.73
2019-05-20T18:09:04.537Z,94205.08
2019-05-20T18:11:37.506Z,94204.41
2019-05-20T18:14:10.180Z,94201.30
2019-05-20T18:16:43.637Z,94200.31
2019-05-20T18:19:16.361Z,94201.38
2019-05-20T18:21:49.172Z,94199.78
2019-05-20T18:24:21.934Z,94208.06
2019-05-20T18:26:55.868Z,94203.72
2019-05-20T18:29:28.435Z,94201.95
2019-05-20T18:32:00.962Z,94210.45
2019-05-20T18:34:33.695Z,94215.98
2019-05-20T18:37:06.375Z,94224.00
2019-05-20T18:39:40.057Z,94226.75
2019-05-20T18:42:13.116Z,94231.47
2019-05-20T18:44:46.053Z,94234.89
2019-05-20T18:47:19.232Z,94244.16
2019-05-20T18:49:52.146Z,94247.17
2019-05-20T18:52:25.552Z,94246.30
2019-05-20T18:55:01.373Z,94253.96
2019-05-20T18:57:34.519Z,94253.89
2019-05-20T19:00:10.789Z,94257.76
2019-05-20T19:02:44.005Z,94248.75
2019-05-20T19:05:17.717Z,94253.56
2019-05-20T19:07:54.092Z,94253.70
2019-05-20T19:10:27.567Z,94253.15
2019-05-20T19:13:00.528Z,94252.63
2019-05-20T19:15:35.133Z,94253.37
2019-05-20T19:18:09.761Z,94261.81
2019-05-20T19:20:42.498Z,94265.88
2019-05-20T19:23:18.086Z,94262.60
2019-05-20T19:25:50.920Z,94257.89
2019-05-20T19:28:23.628Z,94255.61
2019-05-20T19:30:56.376Z,94260.23
2019-05-20T19:33:29.655Z,94264.59
2019-05-20T19:36:02.768Z,94265.72
2019-05-20T19:38:38.309Z,94262.73
2019-05-20T19:41:12.740Z,94263.40
2019-05-20T19:43:45.711Z,94267.13
2019-05-20T19:46:20.217Z,94265.20
2019-05-20T19:48:54.091Z,94265.96
2019-05-20T19:51:26.713Z,94266.69
2019-05-20T19:53:59.837Z,94272.50
2019-05-20T19:56:32.133Z,94271.16
2019-05-20T19:59:09.657Z,94267.83
2019-05-20T20:01:42.251Z,94267.59
2019-05-20T20:04:15.021Z,94264.07
2019-05-20T20:06:50.237Z,94264.13
2019-05-20T20:09:24.500Z,94268.06
2019-05-20T20:11:59.091Z,94270.77
2019-05-20T20:14:31.383Z,94276.09
2019-05-20T20:17:03.835Z,94279.67
2019-05-20T20:19:36.538Z,94279.66
2019-05-20T20:22:09.052Z,94286.13
2019-05-20T20:24:41.489Z,94282.86
2019-05-20T20:27:13.793Z,94283.25
2019-05-20T20:29:46.102Z,94289.39
2019-05-20T20:32:34.744Z,94290.07
2019-05-20T20:34:52.846Z,94296.73
2019-05-20T20:37:25.408Z,94299.23
2019-05-20T20:39:59.703Z,94301.98
2019-05-20T20:42:32.200Z,94310.10
2019-05-20T20:45:04.911Z,94312.40
2019-05-20T20:47:41.698Z,94309.22
2019-05-20T20:50:12.045Z,94301.90
2019-05-20T20:52:44.520Z,94305.62
2019-05-20T20:55:16.837Z,94308.52
2019-05-20T20:57:49.496Z,94310.14
2019-05-20T21:00:22.538Z,94309.70
2019-05-20T21:02:55.007Z,94309.20
2019-05-20T21:05:27.436Z,94306.52
2019-05-20T21:08:00.158Z,94304.70
2019-05-20T21:10:32.864Z,94308.67
2019-05-20T21:13:05.439Z,94311.61
2019-05-20T21:15:37.738Z,94309.92
2019-05-20T21:18:09.957Z,94306.80
2019-05-20T21:20:42.368Z,94318.15
2019-05-20T21:23:14.580Z,94317.28
2019-05-20T21:25:46.903Z,94315.64
2019-05-20T21:28:19.349Z,94315.20
2019-05-20T21:30:51.875Z,94310.72
2019-05-20T21:33:24.263Z,94300.49
2019-05-20T21:35:56.661Z,94303.83
2019-05-20T21:38:29.151Z,94301.72
2019-05-20T21:41:01.383Z,94303.84
2019-05-20T21:43:33.630Z,94305.89
2019-05-20T21:46:05.869Z,94313.95
2019-05-20T21:48:38.278Z,94312.20
2019-05-20T21:51:10.758Z,94324.48
2019-05-20T21:53:43.028Z,94321.31
2019-05-20T21:56:19.736Z,94319.41
2019-05-20T21:58:53.795Z,94324.44
2019-05-20T22:01:26.655Z,94323.61
2019-05-20T22:03:59.205Z,94329.20
2019-05-20T22:06:31.501Z,94330.41
2019-05-20T22:09:04.356Z,94328.28
2019-05-20T22:11:36.656Z,94328.79
2019-05-20T22:14:08.992Z,94326.86
2019-05-20T22:16:41.026Z,94331.50
2019-05-20T22:19:13.225Z,94324.59
2019-05-20T22:22:04.106Z,94326.43
2019-05-20T22:24:36.277Z,94329.54
2019-05-20T22:27:08.346Z,94328.94
2019-05-20T22:29:40.597Z,94328.92
2019-05-20T22:32:12.830Z,94327.44
2019-05-20T22:34:53.264Z,94325.32
2019-05-20T22:37:20.661Z,94323.30
2019-05-20T22:39:54.422Z,94326.48
2019-05-20T22:42:26.756Z,94320.48
2019-05-20T22:45:00.525Z,94322.16
2019-05-20T22:47:32.726Z,94320.86
2019-05-20T22:50:05.256Z,94324.84
2019-05-20T22:52:37.405Z,94320.75
2019-05-20T22:55:09.650Z,94329.23
2019-05-20T22:57:41.806Z,94326.22
2019-05-20T23:00:14.335Z,94330.91
2019-05-20T23:02:46.510Z,94334.34
2019-05-20T23:05:18.764Z,94338.13
2019-05-20T23:07:50.726Z,94336.75
2019-05-20T23:10:22.793Z,94339.53
2019-05-20T23:12:54.721Z,94341.09
2019-05-20T23:15:26.786Z,94347.50
2019-05-20T23:17:58.701Z,94349.05
2019-05-20T23:20:30.817Z,94348.02
2019-05-20T23:23:03.036Z,94350.80
2019-05-20T23:25:35.344Z,94354.63
2019-05-20T23:28:07.580Z,94357.11
2019-05-20T23:30:39.924Z,94357.27
2019-05-20T23:33:13.891Z,94352.41
2019-05-20T23:35:50.424Z,94351.34
2019-05-20T23:38:24.971Z,94354.05
2019-05-20T23:40:57.374Z,94348.62
2019-05-20T23:43:29.483Z,94350.77
2019-05-20T23:46:01.738Z,94353.64
2019-05-20T23:48:33.758Z,94348.39
2019-05-20T23:51:05.974Z,94341.52
2019-05-20T23:53:38.196Z,94338.13
2019-05-20T23:56:10.314Z,94338.06
2019-05-20T23:58:42.371Z,94339.08
